sensor_id;sensor_type;location;lat;lon;timestamp;temperature;humidity
78731;SHT31;68055;51.978;5.658;2024-03-08T00:00:27;7.3;59.0
78731;SHT31;68055;51.978;5.658;2024-03-08T00:02:59;7.2;59.1
78731;SHT31;68055;51.978;5.658;2024-03-08T00:05:28;7.2;58.9
78731;SHT31;68055;51.978;5.658;2024-03-08T00:07:58;7.2;58.8
78731;SHT31;68055;51.978;5.658;2024-03-08T00:10:26;7.2;59.1
78731;SHT31;68055;51.978;5.658;2024-03-08T00:12:55;7.2;58.8
78731;SHT31;68055;51.978;5.658;2024-03-08T00:15:24;7.2;58.9
78731;SHT31;68055;51.978;5.658;2024-03-08T00:17:53;7.2;58.6
78731;SHT31;68055;51.978;5.658;2024-03-08T00:20:22;7.1;58.7
78731;SHT31;68055;51.978;5.658;2024-03-08T00:22:50;7.1;58.8
78731;SHT31;68055;51.978;5.658;2024-03-08T00:25:19;7.1;58.7
78731;SHT31;68055;51.978;5.658;2024-03-08T00:27:49;7.1;58.6
78731;SHT31;68055;51.978;5.658;2024-03-08T00:30:22;7.1;58.6
78731;SHT31;68055;51.978;5.658;2024-03-08T00:32:51;7.0;58.5
78731;SHT31;68055;51.978;5.658;2024-03-08T00:35:20;7.0;58.4
78731;SHT31;68055;51.978;5.658;2024-03-08T00:37:49;7.0;58.5
78731;SHT31;68055;51.978;5.658;2024-03-08T00:40:17;7.0;58.4
78731;SHT31;68055;51.978;5.658;2024-03-08T00:42:46;6.9;58.3
78731;SHT31;68055;51.978;5.658;2024-03-08T00:45:17;6.9;58.6
78731;SHT31;68055;51.978;5.658;2024-03-08T00:47:46;6.9;58.7
78731;SHT31;68055;51.978;5.658;2024-03-08T00:50:14;6.9;58.7
78731;SHT31;68055;51.978;5.658;2024-03-08T00:52:46;6.9;58.6
78731;SHT31;68055;51.978;5.658;2024-03-08T00:55:15;6.8;58.6
78731;SHT31;68055;51.978;5.658;2024-03-08T00:57:45;6.8;58.5
78731;SHT31;68055;51.978;5.658;2024-03-08T01:00:14;6.8;58.5
78731;SHT31;68055;51.978;5.658;2024-03-08T01:02:45;6.8;58.4
78731;SHT31;68055;51.978;5.658;2024-03-08T01:05:14;6.8;58.6
78731;SHT31;68055;51.978;5.658;2024-03-08T01:07:44;6.7;58.4
78731;SHT31;68055;51.978;5.658;2024-03-08T01:10:12;6.7;58.5
78731;SHT31;68055;51.978;5.658;2024-03-08T01:12:41;6.7;58.5
78731;SHT31;68055;51.978;5.658;2024-03-08T01:15:11;6.7;58.6
78731;SHT31;68055;51.978;5.658;2024-03-08T01:17:42;6.7;58.5
78731;SHT31;68055;51.978;5.658;2024-03-08T01:20:11;6.6;58.5
78731;SHT31;68055;51.978;5.658;2024-03-08T01:22:40;6.6;58.5
78731;SHT31;68055;51.978;5.658;2024-03-08T01:25:09;6.6;58.4
78731;SHT31;68055;51.978;5.658;2024-03-08T01:27:40;6.6;58.4
78731;SHT31;68055;51.978;5.658;2024-03-08T01:30:09;6.6;58.5
78731;SHT31;68055;51.978;5.658;2024-03-08T01:32:39;6.5;58.3
78731;SHT31;68055;51.978;5.658;2024-03-08T01:35:09;6.5;58.0
78731;SHT31;68055;51.978;5.658;2024-03-08T01:37:38;6.5;58.1
78731;SHT31;68055;51.978;5.658;2024-03-08T01:40:07;6.5;58.1
78731;SHT31;68055;51.978;5.658;2024-03-08T01:42:37;6.4;58.1
78731;SHT31;68055;51.978;5.658;2024-03-08T01:45:06;6.4;57.9
78731;SHT31;68055;51.978;5.658;2024-03-08T01:47:36;6.4;58.0
78731;SHT31;68055;51.978;5.658;2024-03-08T01:50:07;6.4;58.3
78731;SHT31;68055;51.978;5.658;2024-03-08T01:52:37;6.4;57.9
78731;SHT31;68055;51.978;5.658;2024-03-08T01:55:07;6.3;57.9
78731;SHT31;68055;51.978;5.658;2024-03-08T01:57:36;6.3;57.8
78731;SHT31;68055;51.978;5.658;2024-03-08T02:00:06;6.3;57.7
78731;SHT31;68055;51.978;5.658;2024-03-08T02:02:37;6.3;57.7
78731;SHT31;68055;51.978;5.658;2024-03-08T02:05:09;6.3;57.4
78731;SHT31;68055;51.978;5.658;2024-03-08T02:07:37;6.3;57.3
78731;SHT31;68055;51.978;5.658;2024-03-08T02:10:07;6.2;57.1
78731;SHT31;68055;51.978;5.658;2024-03-08T02:12:36;6.2;57.5
78731;SHT31;68055;51.978;5.658;2024-03-08T02:15:05;6.2;57.4
78731;SHT31;68055;51.978;5.658;2024-03-08T02:17:35;6.2;57.2
78731;SHT31;68055;51.978;5.658;2024-03-08T02:20:03;6.2;57.1
78731;SHT31;68055;51.978;5.658;2024-03-08T02:22:32;6.2;56.9
78731;SHT31;68055;51.978;5.658;2024-03-08T02:25:02;6.2;56.7
78731;SHT31;68055;51.978;5.658;2024-03-08T02:27:31;6.2;57.0
78731;SHT31;68055;51.978;5.658;2024-03-08T02:30:00;6.1;56.7
78731;SHT31;68055;51.978;5.658;2024-03-08T02:32:29;6.1;56.9
78731;SHT31;68055;51.978;5.658;2024-03-08T02:34:59;6.1;56.7
78731;SHT31;68055;51.978;5.658;2024-03-08T02:37:28;6.1;56.8
78731;SHT31;68055;51.978;5.658;2024-03-08T02:39:59;6.1;56.6
78731;SHT31;68055;51.978;5.658;2024-03-08T02:42:27;6.1;56.8
78731;SHT31;68055;51.978;5.658;2024-03-08T02:44:56;6.1;56.7
78731;SHT31;68055;51.978;5.658;2024-03-08T02:47:25;6.1;56.6
78731;SHT31;68055;51.978;5.658;2024-03-08T02:49:55;6.0;56.5
78731;SHT31;68055;51.978;5.658;2024-03-08T02:52:23;6.0;56.6
78731;SHT31;68055;51.978;5.658;2024-03-08T02:54:52;6.0;56.6
78731;SHT31;68055;51.978;5.658;2024-03-08T02:57:20;6.0;56.4
78731;SHT31;68055;51.978;5.658;2024-03-08T02:59:51;6.0;56.6
78731;SHT31;68055;51.978;5.658;2024-03-08T03:02:22;6.0;56.4
78731;SHT31;68055;51.978;5.658;2024-03-08T03:04:50;5.9;56.4
78731;SHT31;68055;51.978;5.658;2024-03-08T03:07:20;5.9;56.6
78731;SHT31;68055;51.978;5.658;2024-03-08T03:09:48;5.9;56.8
78731;SHT31;68055;51.978;5.658;2024-03-08T03:12:17;5.9;56.6
78731;SHT31;68055;51.978;5.658;2024-03-08T03:14:46;5.9;56.5
78731;SHT31;68055;51.978;5.658;2024-03-08T03:17:15;5.8;56.8
78731;SHT31;68055;51.978;5.658;2024-03-08T03:19:45;5.8;56.8
78731;SHT31;68055;51.978;5.658;2024-03-08T03:22:14;5.8;56.8
78731;SHT31;68055;51.978;5.658;2024-03-08T03:24:42;5.8;56.7
78731;SHT31;68055;51.978;5.658;2024-03-08T03:27:12;5.8;57.1
78731;SHT31;68055;51.978;5.658;2024-03-08T03:29:42;5.8;57.0
78731;SHT31;68055;51.978;5.658;2024-03-08T03:32:15;5.8;57.1
78731;SHT31;68055;51.978;5.658;2024-03-08T03:34:45;5.7;56.9
78731;SHT31;68055;51.978;5.658;2024-03-08T03:37:13;5.7;56.9
78731;SHT31;68055;51.978;5.658;2024-03-08T03:39:44;5.7;57.0
78731;SHT31;68055;51.978;5.658;2024-03-08T03:42:19;5.7;56.9
78731;SHT31;68055;51.978;5.658;2024-03-08T03:44:48;5.7;57.2
78731;SHT31;68055;51.978;5.658;2024-03-08T03:47:17;5.7;57.1
78731;SHT31;68055;51.978;5.658;2024-03-08T03:49:46;5.7;57.2
78731;SHT31;68055;51.978;5.658;2024-03-08T03:52:14;5.7;57.2
78731;SHT31;68055;51.978;5.658;2024-03-08T03:54:43;5.6;57.2
78731;SHT31;68055;51.978;5.658;2024-03-08T03:57:12;5.6;57.1
78731;SHT31;68055;51.978;5.658;2024-03-08T03:59:41;5.6;57.2
78731;SHT31;68055;51.978;5.658;2024-03-08T04:02:11;5.6;57.6
78731;SHT31;68055;51.978;5.658;2024-03-08T04:04:40;5.6;57.7
78731;SHT31;68055;51.978;5.658;2024-03-08T04:07:09;5.6;57.4
78731;SHT31;68055;51.978;5.658;2024-03-08T04:09:37;5.6;57.5
78731;SHT31;68055;51.978;5.658;2024-03-08T04:12:08;5.6;57.4
78731;SHT31;68055;51.978;5.658;2024-03-08T04:14:38;5.6;57.2
78731;SHT31;68055;51.978;5.658;2024-03-08T04:17:07;5.5;57.3
78731;SHT31;68055;51.978;5.658;2024-03-08T04:19:38;5.5;57.4
78731;SHT31;68055;51.978;5.658;2024-03-08T04:22:07;5.5;57.4
78731;SHT31;68055;51.978;5.658;2024-03-08T04:24:35;5.5;57.7
78731;SHT31;68055;51.978;5.658;2024-03-08T04:27:07;5.5;57.6
78731;SHT31;68055;51.978;5.658;2024-03-08T04:29:36;5.5;57.6
78731;SHT31;68055;51.978;5.658;2024-03-08T04:32:05;5.5;57.5
78731;SHT31;68055;51.978;5.658;2024-03-08T04:34:35;5.5;57.4
78731;SHT31;68055;51.978;5.658;2024-03-08T04:37:06;5.5;57.6
78731;SHT31;68055;51.978;5.658;2024-03-08T04:39:37;5.5;57.9
78731;SHT31;68055;51.978;5.658;2024-03-08T04:42:06;5.5;57.8
78731;SHT31;68055;51.978;5.658;2024-03-08T04:44:37;5.5;57.8
78731;SHT31;68055;51.978;5.658;2024-03-08T04:47:06;5.5;57.5
78731;SHT31;68055;51.978;5.658;2024-03-08T04:49:36;5.5;57.3
78731;SHT31;68055;51.978;5.658;2024-03-08T04:52:05;5.5;57.3
78731;SHT31;68055;51.978;5.658;2024-03-08T04:54:35;5.5;57.5
78731;SHT31;68055;51.978;5.658;2024-03-08T04:57:03;5.5;57.5
78731;SHT31;68055;51.978;5.658;2024-03-08T04:59:33;5.5;57.5
78731;SHT31;68055;51.978;5.658;2024-03-08T05:02:02;5.5;57.4
78731;SHT31;68055;51.978;5.658;2024-03-08T05:04:33;5.5;57.3
78731;SHT31;68055;51.978;5.658;2024-03-08T05:07:02;5.5;57.4
78731;SHT31;68055;51.978;5.658;2024-03-08T05:09:31;5.4;57.2
78731;SHT31;68055;51.978;5.658;2024-03-08T05:12:00;5.4;57.3
78731;SHT31;68055;51.978;5.658;2024-03-08T05:14:28;5.4;57.5
78731;SHT31;68055;51.978;5.658;2024-03-08T05:16:57;5.4;57.4
78731;SHT31;68055;51.978;5.658;2024-03-08T05:19:27;5.4;57.4
78731;SHT31;68055;51.978;5.658;2024-03-08T05:21:56;5.4;57.4
78731;SHT31;68055;51.978;5.658;2024-03-08T05:24:25;5.4;57.2
78731;SHT31;68055;51.978;5.658;2024-03-08T05:26:53;5.4;57.3
78731;SHT31;68055;51.978;5.658;2024-03-08T05:29:22;5.4;57.3
78731;SHT31;68055;51.978;5.658;2024-03-08T05:31:52;5.4;57.4
78731;SHT31;68055;51.978;5.658;2024-03-08T05:34:21;5.4;57.4
78731;SHT31;68055;51.978;5.658;2024-03-08T05:36:51;5.4;57.3
78731;SHT31;68055;51.978;5.658;2024-03-08T05:39:21;5.4;57.2
78731;SHT31;68055;51.978;5.658;2024-03-08T05:41:50;5.4;57.3
78731;SHT31;68055;51.978;5.658;2024-03-08T05:44:23;5.3;57.5
78731;SHT31;68055;51.978;5.658;2024-03-08T05:46:55;5.3;57.4
78731;SHT31;68055;51.978;5.658;2024-03-08T05:49:23;5.3;57.5
78731;SHT31;68055;51.978;5.658;2024-03-08T05:51:52;5.3;57.3
78731;SHT31;68055;51.978;5.658;2024-03-08T05:54:20;5.3;57.5
78731;SHT31;68055;51.978;5.658;2024-03-08T05:56:50;5.3;57.5
78731;SHT31;68055;51.978;5.658;2024-03-08T05:59:19;5.3;57.7
78731;SHT31;68055;51.978;5.658;2024-03-08T06:01:51;5.3;57.6
78731;SHT31;68055;51.978;5.658;2024-03-08T06:04:20;5.3;57.6
78731;SHT31;68055;51.978;5.658;2024-03-08T06:06:49;5.3;57.5
78731;SHT31;68055;51.978;5.658;2024-03-08T06:09:18;5.3;57.5
78731;SHT31;68055;51.978;5.658;2024-03-08T06:11:49;5.3;57.4
78731;SHT31;68055;51.978;5.658;2024-03-08T06:14:18;5.3;57.4
78731;SHT31;68055;51.978;5.658;2024-03-08T06:16:47;5.3;57.3
78731;SHT31;68055;51.978;5.658;2024-03-08T06:19:16;5.3;57.3
78731;SHT31;68055;51.978;5.658;2024-03-08T06:21:45;5.3;57.4
78731;SHT31;68055;51.978;5.658;2024-03-08T06:24:14;5.3;57.4
78731;SHT31;68055;51.978;5.658;2024-03-08T06:26:46;5.3;57.7
78731;SHT31;68055;51.978;5.658;2024-03-08T06:29:15;5.3;57.4
78731;SHT31;68055;51.978;5.658;2024-03-08T06:31:44;5.3;57.6
78731;SHT31;68055;51.978;5.658;2024-03-08T06:34:12;5.3;57.5
78731;SHT31;68055;51.978;5.658;2024-03-08T06:36:43;5.3;57.4
78731;SHT31;68055;51.978;5.658;2024-03-08T06:39:12;5.3;57.4
78731;SHT31;68055;51.978;5.658;2024-03-08T06:41:42;5.3;57.4
78731;SHT31;68055;51.978;5.658;2024-03-08T06:44:11;5.3;57.3
78731;SHT31;68055;51.978;5.658;2024-03-08T06:46:39;5.3;57.5
78731;SHT31;68055;51.978;5.658;2024-03-08T06:49:09;5.3;57.6
78731;SHT31;68055;51.978;5.658;2024-03-08T06:51:37;5.4;57.5
78731;SHT31;68055;51.978;5.658;2024-03-08T06:54:07;5.4;57.6
78731;SHT31;68055;51.978;5.658;2024-03-08T06:56:36;5.4;57.6
78731;SHT31;68055;51.978;5.658;2024-03-08T06:59:05;5.4;57.3
78731;SHT31;68055;51.978;5.658;2024-03-08T07:01:37;5.5;57.2
78731;SHT31;68055;51.978;5.658;2024-03-08T07:04:05;5.5;57.4
78731;SHT31;68055;51.978;5.658;2024-03-08T07:06:34;5.6;56.8
78731;SHT31;68055;51.978;5.658;2024-03-08T07:09:03;5.6;56.9
78731;SHT31;68055;51.978;5.658;2024-03-08T07:11:31;5.6;56.8
78731;SHT31;68055;51.978;5.658;2024-03-08T07:14:01;5.7;56.5
78731;SHT31;68055;51.978;5.658;2024-03-08T07:16:32;5.7;56.5
78731;SHT31;68055;51.978;5.658;2024-03-08T07:19:02;5.8;56.4
78731;SHT31;68055;51.978;5.658;2024-03-08T07:21:31;5.8;56.4
78731;SHT31;68055;51.978;5.658;2024-03-08T07:24:00;5.8;56.1
78731;SHT31;68055;51.978;5.658;2024-03-08T07:26:36;5.9;56.0
78731;SHT31;68055;51.978;5.658;2024-03-08T07:29:05;5.9;56.1
78731;SHT31;68055;51.978;5.658;2024-03-08T07:31:34;6.0;56.2
78731;SHT31;68055;51.978;5.658;2024-03-08T07:34:11;6.1;56.1
78731;SHT31;68055;51.978;5.658;2024-03-08T07:36:40;6.2;55.5
78731;SHT31;68055;51.978;5.658;2024-03-08T07:39:08;6.2;55.1
78731;SHT31;68055;51.978;5.658;2024-03-08T07:41:38;6.3;55.0
78731;SHT31;68055;51.978;5.658;2024-03-08T07:44:08;6.4;54.9
78731;SHT31;68055;51.978;5.658;2024-03-08T07:46:37;6.4;54.4
78731;SHT31;68055;51.978;5.658;2024-03-08T07:49:07;6.5;54.5
78731;SHT31;68055;51.978;5.658;2024-03-08T07:51:37;6.5;54.2
78731;SHT31;68055;51.978;5.658;2024-03-08T07:54:06;6.6;54.0
78731;SHT31;68055;51.978;5.658;2024-03-08T07:56:35;6.7;54.3
78731;SHT31;68055;51.978;5.658;2024-03-08T07:59:04;6.7;53.8
78731;SHT31;68055;51.978;5.658;2024-03-08T08:01:34;6.8;53.6
78731;SHT31;68055;51.978;5.658;2024-03-08T08:04:04;6.8;53.2
78731;SHT31;68055;51.978;5.658;2024-03-08T08:06:37;6.9;53.7
78731;SHT31;68055;51.978;5.658;2024-03-08T08:09:07;7.0;53.4
78731;SHT31;68055;51.978;5.658;2024-03-08T08:11:41;7.0;53.0
78731;SHT31;68055;51.978;5.658;2024-03-08T08:14:11;7.1;53.0
78731;SHT31;68055;51.978;5.658;2024-03-08T08:16:40;7.2;52.5
78731;SHT31;68055;51.978;5.658;2024-03-08T08:19:14;7.3;52.3
78731;SHT31;68055;51.978;5.658;2024-03-08T08:21:42;7.4;52.2
78731;SHT31;68055;51.978;5.658;2024-03-08T08:24:11;7.5;51.7
78731;SHT31;68055;51.978;5.658;2024-03-08T08:26:41;7.6;51.7
78731;SHT31;68055;51.978;5.658;2024-03-08T08:29:11;7.7;52.0
78731;SHT31;68055;51.978;5.658;2024-03-08T08:31:42;7.8;51.7
78731;SHT31;68055;51.978;5.658;2024-03-08T08:34:11;7.9;51.3
78731;SHT31;68055;51.978;5.658;2024-03-08T08:36:40;8.1;50.9
78731;SHT31;68055;51.978;5.658;2024-03-08T08:39:08;8.2;50.8
78731;SHT31;68055;51.978;5.658;2024-03-08T08:41:40;8.4;50.3
78731;SHT31;68055;51.978;5.658;2024-03-08T08:44:09;8.6;50.0
78731;SHT31;68055;51.978;5.658;2024-03-08T08:46:38;8.8;49.4
78731;SHT31;68055;51.978;5.658;2024-03-08T08:49:07;8.9;49.0
78731;SHT31;68055;51.978;5.658;2024-03-08T08:51:39;9.1;48.5
78731;SHT31;68055;51.978;5.658;2024-03-08T08:54:09;9.3;48.1
78731;SHT31;68055;51.978;5.658;2024-03-08T08:56:38;9.5;47.5
78731;SHT31;68055;51.978;5.658;2024-03-08T08:59:06;9.7;47.1
78731;SHT31;68055;51.978;5.658;2024-03-08T09:01:35;9.9;46.6
78731;SHT31;68055;51.978;5.658;2024-03-08T09:04:04;10.1;46.6
78731;SHT31;68055;51.978;5.658;2024-03-08T09:06:34;10.2;46.6
78731;SHT31;68055;51.978;5.658;2024-03-08T09:09:02;10.4;46.0
78731;SHT31;68055;51.978;5.658;2024-03-08T09:11:31;10.6;45.9
78731;SHT31;68055;51.978;5.658;2024-03-08T09:14:00;10.8;44.8
78731;SHT31;68055;51.978;5.658;2024-03-08T09:16:29;10.9;44.4
78731;SHT31;68055;51.978;5.658;2024-03-08T09:18:59;11.1;43.7
78731;SHT31;68055;51.978;5.658;2024-03-08T09:21:30;11.2;43.4
78731;SHT31;68055;51.978;5.658;2024-03-08T09:23:58;11.3;43.2
78731;SHT31;68055;51.978;5.658;2024-03-08T09:26:27;11.3;42.8
78731;SHT31;68055;51.978;5.658;2024-03-08T09:28:55;11.3;43.0
78731;SHT31;68055;51.978;5.658;2024-03-08T09:31:24;11.2;43.8
78731;SHT31;68055;51.978;5.658;2024-03-08T09:33:52;11.1;44.8
78731;SHT31;68055;51.978;5.658;2024-03-08T09:36:21;11.0;44.0
78731;SHT31;68055;51.978;5.658;2024-03-08T09:38:50;10.9;45.1
78731;SHT31;68055;51.978;5.658;2024-03-08T09:41:19;10.8;44.7
78731;SHT31;68055;51.978;5.658;2024-03-08T09:43:50;10.7;44.8
78731;SHT31;68055;51.978;5.658;2024-03-08T09:46:22;10.6;45.3
78731;SHT31;68055;51.978;5.658;2024-03-08T09:48:51;10.5;45.7
78731;SHT31;68055;51.978;5.658;2024-03-08T09:51:21;10.4;46.2
78731;SHT31;68055;51.978;5.658;2024-03-08T09:53:56;10.4;46.0
78731;SHT31;68055;51.978;5.658;2024-03-08T09:56:26;10.3;46.1
78731;SHT31;68055;51.978;5.658;2024-03-08T09:58:56;10.2;46.9
78731;SHT31;68055;51.978;5.658;2024-03-08T10:01:37;10.1;46.8
78731;SHT31;68055;51.978;5.658;2024-03-08T10:04:06;10.1;47.1
78731;SHT31;68055;51.978;5.658;2024-03-08T10:09:59;10.0;47.2
78731;SHT31;68055;51.978;5.658;2024-03-08T10:12:27;10.0;47.8
78731;SHT31;68055;51.978;5.658;2024-03-08T10:14:58;9.9;47.8
78731;SHT31;68055;51.978;5.658;2024-03-08T10:17:27;9.9;48.0
78731;SHT31;68055;51.978;5.658;2024-03-08T10:19:59;9.9;48.1
78731;SHT31;68055;51.978;5.658;2024-03-08T10:22:29;9.9;48.2
78731;SHT31;68055;51.978;5.658;2024-03-08T10:24:58;9.9;48.2
78731;SHT31;68055;51.978;5.658;2024-03-08T10:27:27;9.9;47.7
78731;SHT31;68055;51.978;5.658;2024-03-08T10:29:55;9.9;48.0
78731;SHT31;68055;51.978;5.658;2024-03-08T10:32:24;10.0;47.9
78731;SHT31;68055;51.978;5.658;2024-03-08T10:34:52;10.0;47.6
78731;SHT31;68055;51.978;5.658;2024-03-08T10:37:22;10.0;47.5
78731;SHT31;68055;51.978;5.658;2024-03-08T10:40:03;10.0;48.3
78731;SHT31;68055;51.978;5.658;2024-03-08T10:42:40;10.1;48.3
78731;SHT31;68055;51.978;5.658;2024-03-08T10:45:15;10.1;47.8
78731;SHT31;68055;51.978;5.658;2024-03-08T10:47:49;10.1;47.8
78731;SHT31;68055;51.978;5.658;2024-03-08T10:50:26;10.2;47.4
78731;SHT31;68055;51.978;5.658;2024-03-08T10:52:57;10.2;47.4
78731;SHT31;68055;51.978;5.658;2024-03-08T10:55:28;10.2;47.8
78731;SHT31;68055;51.978;5.658;2024-03-08T10:57:56;10.3;47.5
78731;SHT31;68055;51.978;5.658;2024-03-08T11:00:25;10.3;47.3
78731;SHT31;68055;51.978;5.658;2024-03-08T11:02:55;10.3;47.3
78731;SHT31;68055;51.978;5.658;2024-03-08T11:05:37;10.3;47.4
78731;SHT31;68055;51.978;5.658;2024-03-08T11:08:18;10.4;47.4
78731;SHT31;68055;51.978;5.658;2024-03-08T11:10:52;10.4;47.5
78731;SHT31;68055;51.978;5.658;2024-03-08T11:13:43;10.4;47.4
78731;SHT31;68055;51.978;5.658;2024-03-08T11:16:14;10.5;47.2
78731;SHT31;68055;51.978;5.658;2024-03-08T11:18:49;10.5;47.5
78731;SHT31;68055;51.978;5.658;2024-03-08T11:21:18;10.6;47.2
78731;SHT31;68055;51.978;5.658;2024-03-08T11:24:01;10.6;47.5
78731;SHT31;68055;51.978;5.658;2024-03-08T11:26:32;10.6;46.8
78731;SHT31;68055;51.978;5.658;2024-03-08T11:29:35;10.7;46.8
78731;SHT31;68055;51.978;5.658;2024-03-08T11:32:07;10.7;46.2
78731;SHT31;68055;51.978;5.658;2024-03-08T11:34:36;10.8;46.2
78731;SHT31;68055;51.978;5.658;2024-03-08T11:37:13;10.8;46.6
78731;SHT31;68055;51.978;5.658;2024-03-08T11:39:48;10.9;46.3
78731;SHT31;68055;51.978;5.658;2024-03-08T11:42:18;10.9;45.9
78731;SHT31;68055;51.978;5.658;2024-03-08T11:44:50;11.0;45.5
78731;SHT31;68055;51.978;5.658;2024-03-08T11:47:20;11.0;45.4
78731;SHT31;68055;51.978;5.658;2024-03-08T11:49:48;11.1;45.5
78731;SHT31;68055;51.978;5.658;2024-03-08T11:52:19;11.1;45.3
78731;SHT31;68055;51.978;5.658;2024-03-08T11:54:53;11.2;45.1
78731;SHT31;68055;51.978;5.658;2024-03-08T11:57:24;11.2;44.3
78731;SHT31;68055;51.978;5.658;2024-03-08T11:59:54;11.3;44.9
78731;SHT31;68055;51.978;5.658;2024-03-08T12:02:23;11.3;45.1
78731;SHT31;68055;51.978;5.658;2024-03-08T12:04:58;11.3;44.5
78731;SHT31;68055;51.978;5.658;2024-03-08T12:07:30;11.4;44.5
78731;SHT31;68055;51.978;5.658;2024-03-08T12:10:19;11.4;44.1
78731;SHT31;68055;51.978;5.658;2024-03-08T12:12:50;11.5;44.0
78731;SHT31;68055;51.978;5.658;2024-03-08T12:15:23;11.5;43.8
78731;SHT31;68055;51.978;5.658;2024-03-08T12:17:53;11.6;43.5
78731;SHT31;68055;51.978;5.658;2024-03-08T12:20:24;11.6;43.2
78731;SHT31;68055;51.978;5.658;2024-03-08T12:22:56;11.6;42.8
78731;SHT31;68055;51.978;5.658;2024-03-08T12:25:29;11.7;42.7
78731;SHT31;68055;51.978;5.658;2024-03-08T12:28:09;11.7;42.6
78731;SHT31;68055;51.978;5.658;2024-03-08T12:30:45;11.8;43.3
78731;SHT31;68055;51.978;5.658;2024-03-08T12:33:15;11.8;43.0
78731;SHT31;68055;51.978;5.658;2024-03-08T12:35:53;11.8;43.0
78731;SHT31;68055;51.978;5.658;2024-03-08T12:38:28;11.9;42.4
78731;SHT31;68055;51.978;5.658;2024-03-08T12:40:58;11.9;42.9
78731;SHT31;68055;51.978;5.658;2024-03-08T12:43:27;11.9;42.9
78731;SHT31;68055;51.978;5.658;2024-03-08T12:45:58;11.9;43.0
78731;SHT31;68055;51.978;5.658;2024-03-08T12:48:27;11.9;43.4
78731;SHT31;68055;51.978;5.658;2024-03-08T12:50:55;11.9;42.8
78731;SHT31;68055;51.978;5.658;2024-03-08T12:53:24;12.0;42.5
78731;SHT31;68055;51.978;5.658;2024-03-08T12:55:55;12.0;42.8
78731;SHT31;68055;51.978;5.658;2024-03-08T12:58:24;12.0;42.0
78731;SHT31;68055;51.978;5.658;2024-03-08T13:00:54;12.0;42.8
78731;SHT31;68055;51.978;5.658;2024-03-08T13:03:23;12.0;43.0
78731;SHT31;68055;51.978;5.658;2024-03-08T13:05:51;12.1;42.7
78731;SHT31;68055;51.978;5.658;2024-03-08T13:08:22;12.1;42.3
78731;SHT31;68055;51.978;5.658;2024-03-08T13:10:54;12.1;42.1
78731;SHT31;68055;51.978;5.658;2024-03-08T13:13:23;12.1;42.0
78731;SHT31;68055;51.978;5.658;2024-03-08T13:15:52;12.1;42.2
78731;SHT31;68055;51.978;5.658;2024-03-08T13:18:23;12.1;42.4
78731;SHT31;68055;51.978;5.658;2024-03-08T13:20:51;12.1;42.5
78731;SHT31;68055;51.978;5.658;2024-03-08T13:23:21;12.1;42.9
78731;SHT31;68055;51.978;5.658;2024-03-08T13:25:50;12.1;42.3
78731;SHT31;68055;51.978;5.658;2024-03-08T13:28:18;12.2;42.5
78731;SHT31;68055;51.978;5.658;2024-03-08T13:30:49;12.2;42.6
78731;SHT31;68055;51.978;5.658;2024-03-08T13:33:18;12.2;42.6
78731;SHT31;68055;51.978;5.658;2024-03-08T13:35:47;12.2;42.3
78731;SHT31;68055;51.978;5.658;2024-03-08T13:38:16;12.2;42.7
78731;SHT31;68055;51.978;5.658;2024-03-08T13:40:46;12.2;43.0
78731;SHT31;68055;51.978;5.658;2024-03-08T13:43:16;12.2;43.2
78731;SHT31;68055;51.978;5.658;2024-03-08T13:45:45;12.2;42.8
78731;SHT31;68055;51.978;5.658;2024-03-08T13:48:14;12.2;43.1
78731;SHT31;68055;51.978;5.658;2024-03-08T13:50:43;12.2;43.5
78731;SHT31;68055;51.978;5.658;2024-03-08T13:53:11;12.3;43.0
78731;SHT31;68055;51.978;5.658;2024-03-08T13:55:40;12.3;42.8
78731;SHT31;68055;51.978;5.658;2024-03-08T13:58:09;12.3;43.1
78731;SHT31;68055;51.978;5.658;2024-03-08T14:00:40;12.3;42.9
78731;SHT31;68055;51.978;5.658;2024-03-08T14:03:10;12.3;42.6
78731;SHT31;68055;51.978;5.658;2024-03-08T14:05:41;12.3;42.2
78731;SHT31;68055;51.978;5.658;2024-03-08T14:08:10;12.3;42.6
78731;SHT31;68055;51.978;5.658;2024-03-08T14:10:38;12.3;42.2
78731;SHT31;68055;51.978;5.658;2024-03-08T14:13:08;12.3;42.2
78731;SHT31;68055;51.978;5.658;2024-03-08T14:15:38;12.3;42.3
78731;SHT31;68055;51.978;5.658;2024-03-08T14:18:08;12.3;42.9
78731;SHT31;68055;51.978;5.658;2024-03-08T14:20:39;12.3;42.7
78731;SHT31;68055;51.978;5.658;2024-03-08T14:23:08;12.3;42.4
78731;SHT31;68055;51.978;5.658;2024-03-08T14:25:39;12.3;42.4
78731;SHT31;68055;51.978;5.658;2024-03-08T14:28:07;12.3;42.7
78731;SHT31;68055;51.978;5.658;2024-03-08T14:30:36;12.3;42.5
78731;SHT31;68055;51.978;5.658;2024-03-08T14:33:10;12.3;42.9
78731;SHT31;68055;51.978;5.658;2024-03-08T14:35:40;12.3;42.8
78731;SHT31;68055;51.978;5.658;2024-03-08T14:38:10;12.3;42.8
78731;SHT31;68055;51.978;5.658;2024-03-08T14:40:39;12.3;42.6
78731;SHT31;68055;51.978;5.658;2024-03-08T14:43:12;12.3;42.4
78731;SHT31;68055;51.978;5.658;2024-03-08T14:45:43;12.4;42.5
78731;SHT31;68055;51.978;5.658;2024-03-08T14:48:15;12.4;42.5
78731;SHT31;68055;51.978;5.658;2024-03-08T14:50:44;12.4;42.6
78731;SHT31;68055;51.978;5.658;2024-03-08T14:53:13;12.4;42.6
78731;SHT31;68055;51.978;5.658;2024-03-08T14:55:42;12.4;42.8
78731;SHT31;68055;51.978;5.658;2024-03-08T14:58:13;12.4;43.1
78731;SHT31;68055;51.978;5.658;2024-03-08T15:00:44;12.4;43.0
78731;SHT31;68055;51.978;5.658;2024-03-08T15:03:14;12.4;42.9
78731;SHT31;68055;51.978;5.658;2024-03-08T15:05:46;12.4;43.1
78731;SHT31;68055;51.978;5.658;2024-03-08T15:08:16;12.4;42.8
78731;SHT31;68055;51.978;5.658;2024-03-08T15:10:48;12.4;42.9
78731;SHT31;68055;51.978;5.658;2024-03-08T15:13:20;12.4;42.3
78731;SHT31;68055;51.978;5.658;2024-03-08T15:15:54;12.4;42.0
78731;SHT31;68055;51.978;5.658;2024-03-08T15:18:25;12.4;42.4
78731;SHT31;68055;51.978;5.658;2024-03-08T15:20:59;12.4;42.7
78731;SHT31;68055;51.978;5.658;2024-03-08T15:23:30;12.4;42.7
78731;SHT31;68055;51.978;5.658;2024-03-08T15:26:01;12.4;42.7
78731;SHT31;68055;51.978;5.658;2024-03-08T15:28:30;12.4;43.1
78731;SHT31;68055;51.978;5.658;2024-03-08T15:31:05;12.4;42.8
78731;SHT31;68055;51.978;5.658;2024-03-08T15:33:35;12.4;43.0
78731;SHT31;68055;51.978;5.658;2024-03-08T15:36:10;12.4;43.3
78731;SHT31;68055;51.978;5.658;2024-03-08T15:38:42;12.4;43.7
78731;SHT31;68055;51.978;5.658;2024-03-08T15:41:13;12.4;43.1
78731;SHT31;68055;51.978;5.658;2024-03-08T15:43:44;12.4;43.0
78731;SHT31;68055;51.978;5.658;2024-03-08T15:46:12;12.4;42.9
78731;SHT31;68055;51.978;5.658;2024-03-08T15:48:42;12.4;43.3
78731;SHT31;68055;51.978;5.658;2024-03-08T15:51:10;12.4;42.8
78731;SHT31;68055;51.978;5.658;2024-03-08T15:53:39;12.4;43.1
78731;SHT31;68055;51.978;5.658;2024-03-08T15:56:08;12.4;43.0
78731;SHT31;68055;51.978;5.658;2024-03-08T15:58:37;12.4;42.7
78731;SHT31;68055;51.978;5.658;2024-03-08T16:01:06;12.4;42.8
78731;SHT31;68055;51.978;5.658;2024-03-08T16:03:37;12.4;42.9
78731;SHT31;68055;51.978;5.658;2024-03-08T16:06:05;12.3;42.7
78731;SHT31;68055;51.978;5.658;2024-03-08T16:08:34;12.3;42.7
78731;SHT31;68055;51.978;5.658;2024-03-08T16:11:06;12.3;42.7
78731;SHT31;68055;51.978;5.658;2024-03-08T16:13:37;12.3;42.8
78731;SHT31;68055;51.978;5.658;2024-03-08T16:16:06;12.3;43.1
78731;SHT31;68055;51.978;5.658;2024-03-08T16:18:35;12.3;43.5
78731;SHT31;68055;51.978;5.658;2024-03-08T16:21:04;12.3;43.0
78731;SHT31;68055;51.978;5.658;2024-03-08T16:23:33;12.3;42.8
78731;SHT31;68055;51.978;5.658;2024-03-08T16:26:03;12.2;42.7
78731;SHT31;68055;51.978;5.658;2024-03-08T16:28:31;12.2;43.0
78731;SHT31;68055;51.978;5.658;2024-03-08T16:31:05;12.2;42.6